Pueblo Army Depot, Colorado
Current Conditions -  °F | °C
As of 10:53 AM on Saturday 25 Oct 2014 (Local Time) from KPUB Reporting Station
Clear Clear  
Wind Chill: 73°   Ceiling: Unl
Heat Index: 73°   Visibility: 10mi
Dew Point: 26°   Wind: 7mph
Humidity: 17%   Direction: NA
Pressure: 30.21"   Gusts: NA
Location:  38.2964°N, 104.538°W
Report Text: KPUB 251653Z AUTO VRB06KT 10SM CLR 23/M03 A3021 RMK AO2 SLP185 T02281033
Loading
Personal Weather Stations






























Interactive Weather Map
Tropical Storm Tracking
New forecast layout! Learn more

10-Day Weather Forecast

Advertisements
Track Severe Weather on mobile